sensor_id;sensor_type;location;lat;lon;timestamp;pressure;altitude;pressure_sealevel;temperature;humidity
14800;BME280;7491;57.750;11.970;2023-05-12T00:01:09;76391.97;;;-142.11;100.00
14800;BME280;7491;57.750;11.970;2023-05-12T00:03:38;76404.22;;;-142.11;100.00
14800;BME280;7491;57.750;11.970;2023-05-12T00:06:05;76418.50;;;-142.11;100.00
14800;BME280;7491;57.750;11.970;2023-05-12T00:08:32;76412.38;;;-142.11;100.00
14800;BME280;7491;57.750;11.970;2023-05-12T00:11:00;76420.53;;;-142.11;100.00
14800;BME280;7491;57.750;11.970;2023-05-12T00:13:26;76424.59;;;-142.11;100.00
14800;BME280;7491;57.750;11.970;2023-05-12T00:15:53;76436.84;;;-142.11;100.00
14800;BME280;7491;57.750;11.970;2023-05-12T00:18:23;76432.75;;;-142.11;100.00
14800;BME280;7491;57.750;11.970;2023-05-12T00:20:51;76445.00;;;-142.11;100.00
14800;BME280;7491;57.750;11.970;2023-05-12T00:23:19;76453.16;;;-142.11;100.00
14800;BME280;7491;57.750;11.970;2023-05-12T00:25:46;76457.22;;;-142.11;100.00
14800;BME280;7491;57.750;11.970;2023-05-12T00:28:13;76463.34;;;-142.11;100.00
14800;BME280;7491;57.750;11.970;2023-05-12T00:30:40;76463.34;;;-142.11;100.00
14800;BME280;7491;57.750;11.970;2023-05-12T00:33:06;76477.63;;;-142.11;100.00
14800;BME280;7491;57.750;11.970;2023-05-12T00:35:33;76477.63;;;-142.11;100.00
14800;BME280;7491;57.750;11.970;2023-05-12T00:38:01;76475.56;;;-142.11;100.00
14800;BME280;7491;57.750;11.970;2023-05-12T00:40:28;76475.56;;;-142.11;100.00
14800;BME280;7491;57.750;11.970;2023-05-12T00:42:54;76495.97;;;-142.11;100.00
14800;BME280;7491;57.750;11.970;2023-05-12T00:45:21;76495.97;;;-142.11;100.00
14800;BME280;7491;57.750;11.970;2023-05-12T00:47:48;76504.13;;;-142.11;100.00
14800;BME280;7491;57.750;11.970;2023-05-12T00:50:17;76528.56;;;-142.11;100.00
14800;BME280;7491;57.750;11.970;2023-05-12T00:52:45;76532.66;;;-142.11;100.00
14800;BME280;7491;57.750;11.970;2023-05-12T00:55:13;76530.63;;;-142.11;100.00
14800;BME280;7491;57.750;11.970;2023-05-12T00:57:41;76532.66;;;-142.11;100.00
14800;BME280;7491;57.750;11.970;2023-05-12T01:00:09;76538.78;;;-142.11;100.00
14800;BME280;7491;57.750;11.970;2023-05-12T01:02:36;76542.84;;;-142.11;100.00
14800;BME280;7491;57.750;11.970;2023-05-12T01:05:03;76542.84;;;-142.11;100.00
14800;BME280;7491;57.750;11.970;2023-05-12T01:07:31;76538.78;;;-142.11;100.00
14800;BME280;7491;57.750;11.970;2023-05-12T01:09:58;76540.81;;;-142.11;100.00
14800;BME280;7491;57.750;11.970;2023-05-12T01:12:26;76546.94;;;-142.11;100.00
14800;BME280;7491;57.750;11.970;2023-05-12T01:14:54;76548.97;;;-142.11;100.00
14800;BME280;7491;57.750;11.970;2023-05-12T01:17:27;76551.00;;;-142.11;100.00
14800;BME280;7491;57.750;11.970;2023-05-12T01:19:58;76567.31;;;-142.11;100.00
14800;BME280;7491;57.750;11.970;2023-05-12T01:22:28;76575.47;;;-142.11;100.00
14800;BME280;7491;57.750;11.970;2023-05-12T01:24:57;76569.34;;;-142.11;100.00
14800;BME280;7491;57.750;11.970;2023-05-12T01:27:26;76577.50;;;-142.11;100.00
14800;BME280;7491;57.750;11.970;2023-05-12T01:29:56;76583.63;;;-142.11;100.00
14800;BME280;7491;57.750;11.970;2023-05-12T01:32:25;76589.75;;;-142.11;100.00
14800;BME280;7491;57.750;11.970;2023-05-12T01:34:51;76597.91;;;-142.11;100.00
14800;BME280;7491;57.750;11.970;2023-05-12T01:37:18;76601.97;;;-142.11;100.00
14800;BME280;7491;57.750;11.970;2023-05-12T01:39:45;76614.22;;;-142.11;100.00
14800;BME280;7491;57.750;11.970;2023-05-12T01:42:11;76608.09;;;-142.11;100.00
14800;BME280;7491;57.750;11.970;2023-05-12T01:44:40;76612.16;;;-142.11;100.00
14800;BME280;7491;57.750;11.970;2023-05-12T01:47:07;76624.41;;;-142.11;99.93
14800;BME280;7491;57.750;11.970;2023-05-12T01:49:35;76628.47;;;-142.11;100.00
14800;BME280;7491;57.750;11.970;2023-05-12T01:52:02;76632.56;;;-142.11;99.60
14800;BME280;7491;57.750;11.970;2023-05-12T01:54:29;76634.59;;;-142.11;99.79
14800;BME280;7491;57.750;11.970;2023-05-12T01:56:56;76636.63;;;-142.11;99.34
14800;BME280;7491;57.750;11.970;2023-05-12T01:59:23;76640.72;;;-142.11;99.26
14800;BME280;7491;57.750;11.970;2023-05-12T02:01:51;76642.75;;;-142.11;99.63
14800;BME280;7491;57.750;11.970;2023-05-12T02:04:17;76648.88;;;-142.11;99.28
14800;BME280;7491;57.750;11.970;2023-05-12T02:06:44;76665.19;;;-142.11;99.31
14800;BME280;7491;57.750;11.970;2023-05-12T02:09:11;76665.19;;;-142.11;98.74
14800;BME280;7491;57.750;11.970;2023-05-12T02:11:37;76669.25;;;-142.11;99.00
14800;BME280;7491;57.750;11.970;2023-05-12T02:14:04;76675.38;;;-142.11;98.67
14800;BME280;7491;57.750;11.970;2023-05-12T02:16:31;76677.41;;;-142.11;98.71
14800;BME280;7491;57.750;11.970;2023-05-12T02:18:59;76669.25;;;-142.11;98.58
14800;BME280;7491;57.750;11.970;2023-05-12T02:21:26;76681.50;;;-142.11;98.67
14800;BME280;7491;57.750;11.970;2023-05-12T02:23:53;76675.38;;;-142.11;98.38
14800;BME280;7491;57.750;11.970;2023-05-12T02:26:20;76695.75;;;-142.11;98.41
14800;BME280;7491;57.750;11.970;2023-05-12T02:28:47;76703.91;;;-142.11;98.62
14800;BME280;7491;57.750;11.970;2023-05-12T02:31:13;76705.94;;;-142.11;99.12
14800;BME280;7491;57.750;11.970;2023-05-12T02:33:40;76736.53;;;-142.11;100.00
14800;BME280;7491;57.750;11.970;2023-05-12T02:36:09;76738.56;;;-142.11;100.00
14800;BME280;7491;57.750;11.970;2023-05-12T02:38:36;76730.41;;;-142.11;99.58
14800;BME280;7491;57.750;11.970;2023-05-12T02:41:04;76734.50;;;-142.11;99.75
14800;BME280;7491;57.750;11.970;2023-05-12T02:43:31;76744.69;;;-142.11;100.00
14800;BME280;7491;57.750;11.970;2023-05-12T02:45:57;76750.81;;;-142.11;100.00
14800;BME280;7491;57.750;11.970;2023-05-12T02:48:24;76761.00;;;-142.11;100.00
14800;BME280;7491;57.750;11.970;2023-05-12T02:50:51;76775.28;;;-142.11;100.00
14800;BME280;7491;57.750;11.970;2023-05-12T02:53:19;76742.66;;;-142.11;100.00
14800;BME280;7491;57.750;11.970;2023-05-12T02:55:49;76726.34;;;-142.11;100.00
14800;BME280;7491;57.750;11.970;2023-05-12T02:58:16;76716.16;;;-142.11;99.55
14800;BME280;7491;57.750;11.970;2023-05-12T03:00:43;76726.34;;;-142.11;99.15
14800;BME280;7491;57.750;11.970;2023-05-12T03:03:09;76718.19;;;-142.11;98.84
14800;BME280;7491;57.750;11.970;2023-05-12T03:05:36;76720.22;;;-142.11;98.54
14800;BME280;7491;57.750;11.970;2023-05-12T03:08:04;76718.19;;;-142.11;98.62
14800;BME280;7491;57.750;11.970;2023-05-12T03:10:32;76726.34;;;-142.11;99.10
14800;BME280;7491;57.750;11.970;2023-05-12T03:12:59;76714.09;;;-142.11;99.10
14800;BME280;7491;57.750;11.970;2023-05-12T03:15:25;76722.25;;;-142.11;99.57
14800;BME280;7491;57.750;11.970;2023-05-12T03:17:54;76734.50;;;-142.11;100.00
14800;BME280;7491;57.750;11.970;2023-05-12T03:20:21;76730.41;;;-142.11;100.00
14800;BME280;7491;57.750;11.970;2023-05-12T03:22:48;76736.53;;;-142.11;100.00
14800;BME280;7491;57.750;11.970;2023-05-12T03:25:14;76722.25;;;-142.11;100.00
14800;BME280;7491;57.750;11.970;2023-05-12T03:27:46;76722.25;;;-142.11;100.00
14800;BME280;7491;57.750;11.970;2023-05-12T03:30:23;76730.41;;;-142.11;100.00
14800;BME280;7491;57.750;11.970;2023-05-12T03:32:51;76716.16;;;-142.11;100.00
14800;BME280;7491;57.750;11.970;2023-05-12T03:35:18;76712.06;;;-142.11;100.00
14800;BME280;7491;57.750;11.970;2023-05-12T03:37:45;76712.06;;;-142.11;100.00
14800;BME280;7491;57.750;11.970;2023-05-12T03:40:12;76720.22;;;-142.11;100.00
14800;BME280;7491;57.750;11.970;2023-05-12T03:42:44;76722.25;;;-142.11;100.00
14800;BME280;7491;57.750;11.970;2023-05-12T03:45:14;76714.09;;;-142.11;100.00
14800;BME280;7491;57.750;11.970;2023-05-12T03:47:41;76722.25;;;-142.11;100.00
14800;BME280;7491;57.750;11.970;2023-05-12T03:50:08;76730.41;;;-142.11;100.00
14800;BME280;7491;57.750;11.970;2023-05-12T03:52:35;76722.25;;;-142.11;100.00
14800;BME280;7491;57.750;11.970;2023-05-12T03:55:03;76720.22;;;-142.11;100.00
14800;BME280;7491;57.750;11.970;2023-05-12T03:57:30;76716.16;;;-142.11;100.00
14800;BME280;7491;57.750;11.970;2023-05-12T03:59:59;76714.09;;;-142.11;100.00
14800;BME280;7491;57.750;11.970;2023-05-12T04:02:26;76710.03;;;-142.11;100.00
14800;BME280;7491;57.750;11.970;2023-05-12T04:04:52;76710.03;;;-142.11;100.00
14800;BME280;7491;57.750;11.970;2023-05-12T04:07:20;76693.72;;;-142.11;100.00
14800;BME280;7491;57.750;11.970;2023-05-12T04:09:47;76714.09;;;-142.11;100.00
14800;BME280;7491;57.750;11.970;2023-05-12T04:12:14;76695.75;;;-142.11;100.00
14800;BME280;7491;57.750;11.970;2023-05-12T04:14:41;76695.75;;;-142.11;100.00
14800;BME280;7491;57.750;11.970;2023-05-12T04:17:09;76693.72;;;-142.11;100.00
14800;BME280;7491;57.750;11.970;2023-05-12T04:19:36;76689.63;;;-142.11;100.00
14800;BME280;7491;57.750;11.970;2023-05-12T04:22:03;76679.44;;;-142.11;100.00
14800;BME280;7491;57.750;11.970;2023-05-12T04:24:30;76681.50;;;-142.11;100.00
14800;BME280;7491;57.750;11.970;2023-05-12T04:26:57;76663.13;;;-142.11;100.00
14800;BME280;7491;57.750;11.970;2023-05-12T04:29:23;76638.66;;;-142.11;99.13
14800;BME280;7491;57.750;11.970;2023-05-12T04:31:50;76622.34;;;-142.11;97.25
14800;BME280;7491;57.750;11.970;2023-05-12T04:34:18;76601.97;;;-142.11;96.77
14800;BME280;7491;57.750;11.970;2023-05-12T04:36:45;76583.63;;;-142.11;95.38
14800;BME280;7491;57.750;11.970;2023-05-12T04:39:12;76563.25;;;-142.11;95.50
14800;BME280;7491;57.750;11.970;2023-05-12T04:41:39;76544.88;;;-142.11;95.36
14800;BME280;7491;57.750;11.970;2023-05-12T04:44:06;76530.63;;;-142.11;93.68
14800;BME280;7491;57.750;11.970;2023-05-12T04:46:33;76518.38;;;-142.11;92.94
14800;BME280;7491;57.750;11.970;2023-05-12T04:49:00;76500.03;;;-142.11;91.54
14800;BME280;7491;57.750;11.970;2023-05-12T04:51:28;76489.84;;;-142.11;90.75
14800;BME280;7491;57.750;11.970;2023-05-12T04:53:56;76477.63;;;-142.11;89.19
14800;BME280;7491;57.750;11.970;2023-05-12T04:56:22;76467.41;;;-142.11;88.59
14800;BME280;7491;57.750;11.970;2023-05-12T04:58:49;76453.16;;;-142.11;88.28
14800;BME280;7491;57.750;11.970;2023-05-12T05:01:16;76445.00;;;-142.11;87.48
14800;BME280;7491;57.750;11.970;2023-05-12T05:03:43;76418.50;;;-142.11;87.96
14800;BME280;7491;57.750;11.970;2023-05-12T05:06:10;76406.25;;;-142.11;86.92
14800;BME280;7491;57.750;11.970;2023-05-12T05:08:38;76398.09;;;-142.11;87.11
14800;BME280;7491;57.750;11.970;2023-05-12T05:11:04;76394.03;;;-142.11;87.34
14800;BME280;7491;57.750;11.970;2023-05-12T05:13:31;76385.88;;;-142.11;86.15
14800;BME280;7491;57.750;11.970;2023-05-12T05:15:58;76365.47;;;-142.11;86.47
14800;BME280;7491;57.750;11.970;2023-05-12T05:18:24;76355.28;;;-142.11;85.59
14800;BME280;7491;57.750;11.970;2023-05-12T05:20:51;76338.97;;;-142.11;85.23
14800;BME280;7491;57.750;11.970;2023-05-12T05:23:19;76336.94;;;-142.11;84.40
14800;BME280;7491;57.750;11.970;2023-05-12T05:25:47;76324.72;;;-142.11;84.15
14800;BME280;7491;57.750;11.970;2023-05-12T05:28:16;76318.59;;;-142.11;84.06
14800;BME280;7491;57.750;11.970;2023-05-12T05:30:43;76314.53;;;-142.11;83.57
14800;BME280;7491;57.750;11.970;2023-05-12T05:33:09;76296.16;;;-142.11;83.75
14800;BME280;7491;57.750;11.970;2023-05-12T05:35:37;76288.03;;;-142.11;83.24
14800;BME280;7491;57.750;11.970;2023-05-12T05:38:04;76269.66;;;-142.11;83.86
14800;BME280;7491;57.750;11.970;2023-05-12T05:40:30;76249.28;;;-142.11;83.43
14800;BME280;7491;57.750;11.970;2023-05-12T05:42:58;76269.66;;;-142.11;83.11
14800;BME280;7491;57.750;11.970;2023-05-12T05:45:25;76237.06;;;-142.11;82.93
14800;BME280;7491;57.750;11.970;2023-05-12T05:47:52;76218.72;;;-142.11;83.61
14800;BME280;7491;57.750;11.970;2023-05-12T05:50:19;76220.75;;;-142.11;82.30
14800;BME280;7491;57.750;11.970;2023-05-12T05:52:45;76208.50;;;-142.11;82.36
14800;BME280;7491;57.750;11.970;2023-05-12T05:55:12;76192.22;;;-142.11;81.83
14800;BME280;7491;57.750;11.970;2023-05-12T05:57:39;76179.97;;;-142.11;82.36
14800;BME280;7491;57.750;11.970;2023-05-12T06:00:08;76167.75;;;-142.11;83.08
14800;BME280;7491;57.750;11.970;2023-05-12T06:02:36;76157.56;;;-142.11;81.85
14800;BME280;7491;57.750;11.970;2023-05-12T06:05:04;76151.44;;;-142.11;80.30
14800;BME280;7491;57.750;11.970;2023-05-12T06:07:31;76139.22;;;-142.11;79.38
14800;BME280;7491;57.750;11.970;2023-05-12T06:09:58;76120.84;;;-142.11;80.39
14800;BME280;7491;57.750;11.970;2023-05-12T06:12:25;76106.59;;;-142.11;79.66
14800;BME280;7491;57.750;11.970;2023-05-12T06:14:51;76088.25;;;-142.11;78.98
14800;BME280;7491;57.750;11.970;2023-05-12T06:17:20;76071.94;;;-142.11;78.53
14800;BME280;7491;57.750;11.970;2023-05-12T06:19:47;76055.63;;;-142.11;78.02
14800;BME280;7491;57.750;11.970;2023-05-12T06:22:14;76037.28;;;-142.11;77.21
14800;BME280;7491;57.750;11.970;2023-05-12T06:24:41;76020.97;;;-142.11;76.87
14800;BME280;7491;57.750;11.970;2023-05-12T06:27:08;76004.66;;;-142.11;77.90
14800;BME280;7491;57.750;11.970;2023-05-12T06:29:35;75984.28;;;-142.11;76.52
14800;BME280;7491;57.750;11.970;2023-05-12T06:32:02;75972.06;;;-142.11;75.37
14800;BME280;7491;57.750;11.970;2023-05-12T06:34:31;75945.56;;;-142.11;74.73
14800;BME280;7491;57.750;11.970;2023-05-12T06:36:57;75921.09;;;-142.11;75.88
14800;BME280;7491;57.750;11.970;2023-05-12T06:39:24;75910.91;;;-142.11;75.32
14800;BME280;7491;57.750;11.970;2023-05-12T06:41:51;75882.38;;;-142.11;74.14
14800;BME280;7491;57.750;11.970;2023-05-12T06:44:18;75851.78;;;-142.11;73.67
14800;BME280;7491;57.750;11.970;2023-05-12T06:46:45;75827.34;;;-142.11;73.44
14800;BME280;7491;57.750;11.970;2023-05-12T06:49:12;75788.59;;;-142.11;72.77
14800;BME280;7491;57.750;11.970;2023-05-12T06:51:40;75778.41;;;-142.11;71.40
14800;BME280;7491;57.750;11.970;2023-05-12T06:54:07;75764.16;;;-142.11;72.06
14800;BME280;7491;57.750;11.970;2023-05-12T06:56:34;75741.72;;;-142.11;72.03
14800;BME280;7491;57.750;11.970;2023-05-12T06:59:01;75698.91;;;-142.11;72.04
14800;BME280;7491;57.750;11.970;2023-05-12T07:01:29;75682.63;;;-142.11;70.47
14800;BME280;7491;57.750;11.970;2023-05-12T07:03:56;75662.22;;;-142.11;70.65
14800;BME280;7491;57.750;11.970;2023-05-12T07:06:23;75678.53;;;-142.11;68.45
14800;BME280;7491;57.750;11.970;2023-05-12T07:08:53;75670.38;;;-142.11;68.33
14800;BME280;7491;57.750;11.970;2023-05-12T07:11:20;75625.53;;;-142.11;70.57
14800;BME280;7491;57.750;11.970;2023-05-12T07:13:48;75635.72;;;-142.11;68.46
14800;BME280;7491;57.750;11.970;2023-05-12T07:16:16;75619.44;;;-142.11;68.02
14800;BME280;7491;57.750;11.970;2023-05-12T07:18:43;75594.97;;;-142.11;67.60
14800;BME280;7491;57.750;11.970;2023-05-12T07:21:10;75592.94;;;-142.11;66.87
14800;BME280;7491;57.750;11.970;2023-05-12T07:23:37;75597.00;;;-142.11;66.69
14800;BME280;7491;57.750;11.970;2023-05-12T07:26:06;75564.41;;;-142.11;67.14
14800;BME280;7491;57.750;11.970;2023-05-12T07:28:34;75541.97;;;-142.11;66.19
14800;BME280;7491;57.750;11.970;2023-05-12T07:31:01;75511.41;;;-142.11;66.25
14800;BME280;7491;57.750;11.970;2023-05-12T07:33:28;75523.63;;;-142.11;64.74
14800;BME280;7491;57.750;11.970;2023-05-12T07:35:55;75505.28;;;-142.11;65.47
14800;BME280;7491;57.750;11.970;2023-05-12T07:38:22;75472.69;;;-142.11;63.74
14800;BME280;7491;57.750;11.970;2023-05-12T07:40:49;75484.91;;;-142.11;59.59
14800;BME280;7491;57.750;11.970;2023-05-12T07:43:18;75476.75;;;-142.11;60.23
14800;BME280;7491;57.750;11.970;2023-05-12T07:45:45;75452.31;;;-142.11;62.92
14800;BME280;7491;57.750;11.970;2023-05-12T07:48:12;75433.97;;;-142.11;60.33
14800;BME280;7491;57.750;11.970;2023-05-12T07:50:39;75409.50;;;-142.11;60.77
14800;BME280;7491;57.750;11.970;2023-05-12T07:53:06;75405.44;;;-142.11;61.37
14800;BME280;7491;57.750;11.970;2023-05-12T07:55:33;75389.13;;;-142.11;61.95
14800;BME280;7491;57.750;11.970;2023-05-12T07:58:00;75391.16;;;-142.11;61.42
14800;BME280;7491;57.750;11.970;2023-05-12T08:00:28;75393.19;;;-142.11;59.39
14800;BME280;7491;57.750;11.970;2023-05-12T08:02:55;75383.00;;;-142.11;59.72
14800;BME280;7491;57.750;11.970;2023-05-12T08:05:22;75374.84;;;-142.11;59.31
14800;BME280;7491;57.750;11.970;2023-05-12T08:07:49;75378.94;;;-142.11;58.01
14800;BME280;7491;57.750;11.970;2023-05-12T08:10:16;75372.81;;;-142.11;57.07
14800;BME280;7491;57.750;11.970;2023-05-12T08:12:43;75383.00;;;-142.11;58.37
14800;BME280;7491;57.750;11.970;2023-05-12T08:15:11;75395.25;;;-142.11;57.64
14800;BME280;7491;57.750;11.970;2023-05-12T08:17:39;75399.31;;;-142.11;56.66
14800;BME280;7491;57.750;11.970;2023-05-12T08:20:06;75393.19;;;-142.11;59.71
14800;BME280;7491;57.750;11.970;2023-05-12T08:22:33;75397.28;;;-142.11;60.07
14800;BME280;7491;57.750;11.970;2023-05-12T08:25:00;75397.28;;;-142.11;58.06
14800;BME280;7491;57.750;11.970;2023-05-12T08:27:27;75413.56;;;-142.11;59.36
14800;BME280;7491;57.750;11.970;2023-05-12T08:29:54;75391.16;;;-142.11;59.95
14800;BME280;7491;57.750;11.970;2023-05-12T08:32:21;75368.75;;;-142.11;57.27
14800;BME280;7491;57.750;11.970;2023-05-12T08:34:50;75354.47;;;-142.11;58.43
14800;BME280;7491;57.750;11.970;2023-05-12T08:37:16;75327.97;;;-142.11;57.40
14800;BME280;7491;57.750;11.970;2023-05-12T08:39:43;75309.63;;;-142.11;57.64
14800;BME280;7491;57.750;11.970;2023-05-12T08:42:17;75305.56;;;-142.11;57.25
14800;BME280;7491;57.750;11.970;2023-05-12T08:44:44;75315.75;;;-142.11;59.11
14800;BME280;7491;57.750;11.970;2023-05-12T08:47:12;75277.03;;;-142.11;57.57
14800;BME280;7491;57.750;11.970;2023-05-12T08:49:44;75268.88;;;-142.11;54.95
14800;BME280;7491;57.750;11.970;2023-05-12T08:52:16;75279.06;;;-142.11;54.48
14800;BME280;7491;57.750;11.970;2023-05-12T08:54:46;75279.06;;;-142.11;55.10
14800;BME280;7491;57.750;11.970;2023-05-12T08:57:15;75283.16;;;-142.11;55.20
14800;BME280;7491;57.750;11.970;2023-05-12T08:59:43;75258.69;;;-142.11;55.36
14800;BME280;7491;57.750;11.970;2023-05-12T09:02:10;75252.56;;;-142.11;54.47
14800;BME280;7491;57.750;11.970;2023-05-12T09:04:38;75256.66;;;-142.11;55.26
14800;BME280;7491;57.750;11.970;2023-05-12T09:07:05;75242.38;;;-142.11;55.68
14800;BME280;7491;57.750;11.970;2023-05-12T09:09:35;75246.47;;;-142.11;52.15
14800;BME280;7491;57.750;11.970;2023-05-12T09:12:06;75252.56;;;-142.11;52.15
14800;BME280;7491;57.750;11.970;2023-05-12T09:14:37;75230.16;;;-142.11;53.91
14800;BME280;7491;57.750;11.970;2023-05-12T09:17:05;75244.44;;;-142.11;53.82
14800;BME280;7491;57.750;11.970;2023-05-12T09:19:32;75252.56;;;-142.11;52.46
14800;BME280;7491;57.750;11.970;2023-05-12T09:21:59;75254.63;;;-142.11;50.17
14800;BME280;7491;57.750;11.970;2023-05-12T09:24:34;75256.66;;;-142.11;51.68
14800;BME280;7491;57.750;11.970;2023-05-12T09:27:01;75242.38;;;-142.11;51.56
14800;BME280;7491;57.750;11.970;2023-05-12T09:29:29;75246.47;;;-142.11;51.26
14800;BME280;7491;57.750;11.970;2023-05-12T09:31:58;75240.34;;;-142.11;51.24
14800;BME280;7491;57.750;11.970;2023-05-12T09:34:27;75224.03;;;-142.11;50.53
14800;BME280;7491;57.750;11.970;2023-05-12T09:36:55;75217.94;;;-142.11;50.15
14800;BME280;7491;57.750;11.970;2023-05-12T09:39:22;75213.84;;;-142.11;47.39
14800;BME280;7491;57.750;11.970;2023-05-12T09:41:51;75234.22;;;-142.11;49.18
14800;BME280;7491;57.750;11.970;2023-05-12T09:44:18;75234.22;;;-142.11;49.97
14800;BME280;7491;57.750;11.970;2023-05-12T09:46:46;75201.63;;;-142.11;49.99
14800;BME280;7491;57.750;11.970;2023-05-12T09:49:17;75222.00;;;-142.11;45.90
14800;BME280;7491;57.750;11.970;2023-05-12T09:51:44;75211.81;;;-142.11;48.03
14800;BME280;7491;57.750;11.970;2023-05-12T09:54:10;75230.16;;;-142.11;46.97
14800;BME280;7491;57.750;11.970;2023-05-12T09:56:39;75219.97;;;-142.11;46.15
14800;BME280;7491;57.750;11.970;2023-05-12T09:59:08;75219.97;;;-142.11;46.49
14800;BME280;7491;57.750;11.970;2023-05-12T10:01:38;75211.81;;;-142.11;47.79
14800;BME280;7491;57.750;11.970;2023-05-12T10:04:06;75197.56;;;-142.11;47.56
14800;BME280;7491;57.750;11.970;2023-05-12T10:06:37;75197.56;;;-142.11;48.03
14800;BME280;7491;57.750;11.970;2023-05-12T10:09:10;75193.47;;;-142.11;47.91
14800;BME280;7491;57.750;11.970;2023-05-12T10:11:40;75209.78;;;-142.11;47.46
14800;BME280;7491;57.750;11.970;2023-05-12T10:14:08;75193.47;;;-142.11;48.85
14800;BME280;7491;57.750;11.970;2023-05-12T10:16:35;75189.41;;;-142.11;46.81
14800;BME280;7491;57.750;11.970;2023-05-12T10:19:04;75189.41;;;-142.11;47.77
14800;BME280;7491;57.750;11.970;2023-05-12T10:21:31;75179.22;;;-142.11;47.81
14800;BME280;7491;57.750;11.970;2023-05-12T10:23:59;75177.16;;;-142.11;47.92
14800;BME280;7491;57.750;11.970;2023-05-12T10:26:28;75183.28;;;-142.11;47.00
14800;BME280;7491;57.750;11.970;2023-05-12T10:28:56;75185.31;;;-142.11;46.52
14800;BME280;7491;57.750;11.970;2023-05-12T10:31:25;75183.28;;;-142.11;47.72
14800;BME280;7491;57.750;11.970;2023-05-12T10:33:56;75164.94;;;-142.11;47.51
14800;BME280;7491;57.750;11.970;2023-05-12T10:36:27;75134.38;;;-142.11;49.35
14800;BME280;7491;57.750;11.970;2023-05-12T10:38:55;75128.25;;;-142.11;47.98
14800;BME280;7491;57.750;11.970;2023-05-12T10:41:28;75114.00;;;-142.11;48.41
14800;BME280;7491;57.750;11.970;2023-05-12T10:43:56;75114.00;;;-142.11;48.33
14800;BME280;7491;57.750;11.970;2023-05-12T10:46:24;75107.88;;;-142.11;46.68
14800;BME280;7491;57.750;11.970;2023-05-12T10:48:53;75109.94;;;-142.11;49.15
14800;BME280;7491;57.750;11.970;2023-05-12T10:51:21;75130.31;;;-142.11;46.81
14800;BME280;7491;57.750;11.970;2023-05-12T10:53:54;75128.25;;;-142.11;46.03
14800;BME280;7491;57.750;11.970;2023-05-12T10:56:23;75126.22;;;-142.11;50.22
14800;BME280;7491;57.750;11.970;2023-05-12T10:59:13;75126.22;;;-142.11;49.55
14800;BME280;7491;57.750;11.970;2023-05-12T11:01:58;75114.00;;;-142.11;47.99
14800;BME280;7491;57.750;11.970;2023-05-12T11:04:37;75105.84;;;-142.11;48.07
14800;BME280;7491;57.750;11.970;2023-05-12T11:07:09;75081.41;;;-142.11;48.81
14800;BME280;7491;57.750;11.970;2023-05-12T11:09:37;75071.19;;;-142.11;47.26
14800;BME280;7491;57.750;11.970;2023-05-12T11:12:05;75079.34;;;-142.11;48.03
14800;BME280;7491;57.750;11.970;2023-05-12T11:14:33;75069.16;;;-142.11;50.05
14800;BME280;7491;57.750;11.970;2023-05-12T11:17:01;75083.44;;;-142.11;45.53
14800;BME280;7491;57.750;11.970;2023-05-12T11:19:29;75085.47;;;-142.11;45.66
14800;BME280;7491;57.750;11.970;2023-05-12T11:21:56;75067.13;;;-142.11;48.60
14800;BME280;7491;57.750;11.970;2023-05-12T11:24:23;75050.81;;;-142.11;47.53
14800;BME280;7491;57.750;11.970;2023-05-12T11:26:50;75038.59;;;-142.11;47.34
14800;BME280;7491;57.750;11.970;2023-05-12T11:29:17;75048.78;;;-142.11;46.63
14800;BME280;7491;57.750;11.970;2023-05-12T11:31:48;75032.47;;;-142.11;47.25
14800;BME280;7491;57.750;11.970;2023-05-12T11:34:20;75032.47;;;-142.11;45.70
14800;BME280;7491;57.750;11.970;2023-05-12T11:36:47;75024.34;;;-142.11;46.00
14800;BME280;7491;57.750;11.970;2023-05-12T11:39:17;75030.44;;;-142.11;46.82
14800;BME280;7491;57.750;11.970;2023-05-12T11:41:45;75036.56;;;-142.11;45.91
14800;BME280;7491;57.750;11.970;2023-05-12T11:44:16;75099.72;;;-142.11;52.13
14800;BME280;7491;57.750;11.970;2023-05-12T11:46:53;75146.59;;;-142.11;52.56
14800;BME280;7491;57.750;11.970;2023-05-12T11:49:22;75207.75;;;-142.11;53.38
14800;BME280;7491;57.750;11.970;2023-05-12T11:52:00;75230.16;;;-142.11;54.83
14800;BME280;7491;57.750;11.970;2023-05-12T11:54:30;75219.97;;;-142.11;54.90
14800;BME280;7491;57.750;11.970;2023-05-12T11:56:57;75256.66;;;-142.11;53.04
14800;BME280;7491;57.750;11.970;2023-05-12T11:59:27;75279.06;;;-142.11;53.33
14800;BME280;7491;57.750;11.970;2023-05-12T12:01:55;75279.06;;;-142.11;53.71
14800;BME280;7491;57.750;11.970;2023-05-12T12:04:33;75262.75;;;-142.11;54.25
14800;BME280;7491;57.750;11.970;2023-05-12T12:07:00;75266.84;;;-142.11;54.41
14800;BME280;7491;57.750;11.970;2023-05-12T12:09:32;75266.84;;;-142.11;55.18
14800;BME280;7491;57.750;11.970;2023-05-12T12:12:08;75266.84;;;-142.11;55.50
14800;BME280;7491;57.750;11.970;2023-05-12T12:14:39;75268.88;;;-142.11;56.63
14800;BME280;7491;57.750;11.970;2023-05-12T12:17:16;75260.72;;;-142.11;56.27
14800;BME280;7491;57.750;11.970;2023-05-12T12:20:02;75277.03;;;-142.11;56.25
14800;BME280;7491;57.750;11.970;2023-05-12T12:22:29;75270.91;;;-142.11;56.74
14800;BME280;7491;57.750;11.970;2023-05-12T12:24:59;75283.16;;;-142.11;57.00
14800;BME280;7491;57.750;11.970;2023-05-12T12:27:28;75270.91;;;-142.11;57.39
14800;BME280;7491;57.750;11.970;2023-05-12T12:30:07;75270.91;;;-142.11;56.67
14800;BME280;7491;57.750;11.970;2023-05-12T12:32:34;75293.34;;;-142.11;56.05
14800;BME280;7491;57.750;11.970;2023-05-12T12:35:03;75301.50;;;-142.11;56.87
14800;BME280;7491;57.750;11.970;2023-05-12T12:37:34;75285.19;;;-142.11;57.48
14800;BME280;7491;57.750;11.970;2023-05-12T12:40:05;75260.72;;;-142.11;57.29
14800;BME280;7491;57.750;11.970;2023-05-12T12:42:35;75240.34;;;-142.11;55.56